sensor_id;sensor_type;location;lat;lon;timestamp;temperature;humidity
12688;DHT22;6408;59.388;17.798;2022-11-20T00:01:32;0.50;99.90
12688;DHT22;6408;59.388;17.798;2022-11-20T00:04:00;0.50;99.90
12688;DHT22;6408;59.388;17.798;2022-11-20T00:06:28;0.50;99.90
12688;DHT22;6408;59.388;17.798;2022-11-20T00:08:57;0.40;99.90
12688;DHT22;6408;59.388;17.798;2022-11-20T00:11:27;0.50;99.90
12688;DHT22;6408;59.388;17.798;2022-11-20T00:13:56;0.50;99.90
12688;DHT22;6408;59.388;17.798;2022-11-20T00:16:25;0.50;99.90
12688;DHT22;6408;59.388;17.798;2022-11-20T00:18:52;0.50;99.90
12688;DHT22;6408;59.388;17.798;2022-11-20T00:21:22;0.50;99.90
12688;DHT22;6408;59.388;17.798;2022-11-20T00:23:51;0.50;99.90
12688;DHT22;6408;59.388;17.798;2022-11-20T00:26:20;0.50;99.90
12688;DHT22;6408;59.388;17.798;2022-11-20T00:28:50;0.50;99.90
12688;DHT22;6408;59.388;17.798;2022-11-20T00:31:17;0.50;99.90
12688;DHT22;6408;59.388;17.798;2022-11-20T00:33:45;0.60;99.90
12688;DHT22;6408;59.388;17.798;2022-11-20T00:36:14;0.50;99.90
12688;DHT22;6408;59.388;17.798;2022-11-20T00:38:41;0.50;99.90
12688;DHT22;6408;59.388;17.798;2022-11-20T00:41:12;0.50;99.90
12688;DHT22;6408;59.388;17.798;2022-11-20T00:43:39;0.50;99.90
12688;DHT22;6408;59.388;17.798;2022-11-20T00:46:08;0.50;99.90
12688;DHT22;6408;59.388;17.798;2022-11-20T00:48:36;0.50;99.90
12688;DHT22;6408;59.388;17.798;2022-11-20T00:51:03;0.50;99.90
12688;DHT22;6408;59.388;17.798;2022-11-20T00:53:30;0.50;99.90
12688;DHT22;6408;59.388;17.798;2022-11-20T00:55:59;0.50;99.90
12688;DHT22;6408;59.388;17.798;2022-11-20T00:58:31;0.50;99.90
12688;DHT22;6408;59.388;17.798;2022-11-20T01:01:03;0.60;99.90
12688;DHT22;6408;59.388;17.798;2022-11-20T01:03:31;0.50;99.90
12688;DHT22;6408;59.388;17.798;2022-11-20T01:06:02;0.40;99.90
12688;DHT22;6408;59.388;17.798;2022-11-20T01:08:30;0.40;99.90
12688;DHT22;6408;59.388;17.798;2022-11-20T01:11:01;0.40;99.90
12688;DHT22;6408;59.388;17.798;2022-11-20T01:13:31;0.50;99.90
12688;DHT22;6408;59.388;17.798;2022-11-20T01:16:05;0.50;99.90
12688;DHT22;6408;59.388;17.798;2022-11-20T01:18:33;0.40;99.90
12688;DHT22;6408;59.388;17.798;2022-11-20T01:21:01;0.40;99.90
12688;DHT22;6408;59.388;17.798;2022-11-20T01:23:31;0.50;99.90
12688;DHT22;6408;59.388;17.798;2022-11-20T01:26:01;0.40;99.90
12688;DHT22;6408;59.388;17.798;2022-11-20T01:28:28;0.40;99.90
12688;DHT22;6408;59.388;17.798;2022-11-20T01:30:57;0.40;99.90
12688;DHT22;6408;59.388;17.798;2022-11-20T01:33:24;0.40;99.90
12688;DHT22;6408;59.388;17.798;2022-11-20T01:35:51;0.40;99.90
12688;DHT22;6408;59.388;17.798;2022-11-20T01:38:19;0.40;99.90
12688;DHT22;6408;59.388;17.798;2022-11-20T01:40:54;0.40;99.90
12688;DHT22;6408;59.388;17.798;2022-11-20T01:43:22;0.40;99.90
12688;DHT22;6408;59.388;17.798;2022-11-20T01:46:04;0.50;99.90
12688;DHT22;6408;59.388;17.798;2022-11-20T01:48:35;0.40;99.90
12688;DHT22;6408;59.388;17.798;2022-11-20T01:51:04;0.40;99.90
12688;DHT22;6408;59.388;17.798;2022-11-20T01:53:36;0.40;99.90
12688;DHT22;6408;59.388;17.798;2022-11-20T01:56:06;0.40;99.90
12688;DHT22;6408;59.388;17.798;2022-11-20T01:58:39;0.40;99.90
12688;DHT22;6408;59.388;17.798;2022-11-20T02:01:09;0.40;99.90
12688;DHT22;6408;59.388;17.798;2022-11-20T02:03:37;0.40;99.90
12688;DHT22;6408;59.388;17.798;2022-11-20T02:06:10;0.40;99.90
12688;DHT22;6408;59.388;17.798;2022-11-20T02:08:39;0.40;99.90
12688;DHT22;6408;59.388;17.798;2022-11-20T02:11:06;0.30;99.90
12688;DHT22;6408;59.388;17.798;2022-11-20T02:13:34;0.30;99.90
12688;DHT22;6408;59.388;17.798;2022-11-20T02:16:12;0.30;99.90
12688;DHT22;6408;59.388;17.798;2022-11-20T02:18:41;0.40;99.90
12688;DHT22;6408;59.388;17.798;2022-11-20T02:21:16;0.30;99.90
12688;DHT22;6408;59.388;17.798;2022-11-20T02:24:10;0.30;99.90
12688;DHT22;6408;59.388;17.798;2022-11-20T02:26:45;0.30;99.90
12688;DHT22;6408;59.388;17.798;2022-11-20T02:29:15;0.30;99.90
12688;DHT22;6408;59.388;17.798;2022-11-20T02:31:43;0.30;99.90
12688;DHT22;6408;59.388;17.798;2022-11-20T02:34:11;0.30;99.90
12688;DHT22;6408;59.388;17.798;2022-11-20T02:36:39;0.30;99.90
12688;DHT22;6408;59.388;17.798;2022-11-20T02:39:07;0.30;99.90
12688;DHT22;6408;59.388;17.798;2022-11-20T02:41:38;0.30;99.90
12688;DHT22;6408;59.388;17.798;2022-11-20T02:44:05;0.20;99.90
12688;DHT22;6408;59.388;17.798;2022-11-20T02:46:33;0.30;99.90
12688;DHT22;6408;59.388;17.798;2022-11-20T02:49:01;0.30;99.90
12688;DHT22;6408;59.388;17.798;2022-11-20T02:51:28;0.30;99.90
12688;DHT22;6408;59.388;17.798;2022-11-20T02:53:55;0.30;99.90
12688;DHT22;6408;59.388;17.798;2022-11-20T02:56:23;0.20;99.90
12688;DHT22;6408;59.388;17.798;2022-11-20T02:58:51;0.20;99.90
12688;DHT22;6408;59.388;17.798;2022-11-20T03:01:18;0.30;99.90
12688;DHT22;6408;59.388;17.798;2022-11-20T03:03:45;0.30;99.90
12688;DHT22;6408;59.388;17.798;2022-11-20T03:06:14;0.30;99.90
12688;DHT22;6408;59.388;17.798;2022-11-20T03:08:41;0.20;99.90
12688;DHT22;6408;59.388;17.798;2022-11-20T03:11:09;0.30;99.90
12688;DHT22;6408;59.388;17.798;2022-11-20T03:13:36;0.30;99.90
12688;DHT22;6408;59.388;17.798;2022-11-20T03:16:12;0.20;99.90
12688;DHT22;6408;59.388;17.798;2022-11-20T03:18:40;0.30;99.90
12688;DHT22;6408;59.388;17.798;2022-11-20T03:21:08;0.30;99.90
12688;DHT22;6408;59.388;17.798;2022-11-20T03:23:36;0.20;99.90
12688;DHT22;6408;59.388;17.798;2022-11-20T03:26:12;0.20;99.90
12688;DHT22;6408;59.388;17.798;2022-11-20T03:28:40;0.30;99.90
12688;DHT22;6408;59.388;17.798;2022-11-20T03:31:09;0.30;99.90
12688;DHT22;6408;59.388;17.798;2022-11-20T03:33:38;0.30;99.90
12688;DHT22;6408;59.388;17.798;2022-11-20T03:36:07;0.20;99.90
12688;DHT22;6408;59.388;17.798;2022-11-20T03:38:35;0.20;99.90
12688;DHT22;6408;59.388;17.798;2022-11-20T03:41:04;0.20;99.90
12688;DHT22;6408;59.388;17.798;2022-11-20T03:43:31;0.30;99.90
12688;DHT22;6408;59.388;17.798;2022-11-20T03:45:59;0.20;99.90
12688;DHT22;6408;59.388;17.798;2022-11-20T03:48:26;0.20;99.90
12688;DHT22;6408;59.388;17.798;2022-11-20T03:51:06;0.20;99.90
12688;DHT22;6408;59.388;17.798;2022-11-20T03:53:33;0.20;99.90
12688;DHT22;6408;59.388;17.798;2022-11-20T03:56:01;0.20;99.90
12688;DHT22;6408;59.388;17.798;2022-11-20T03:58:28;0.20;99.90
12688;DHT22;6408;59.388;17.798;2022-11-20T04:00:55;0.20;99.90
12688;DHT22;6408;59.388;17.798;2022-11-20T04:03:22;0.10;99.90
12688;DHT22;6408;59.388;17.798;2022-11-20T04:05:49;0.10;99.90
12688;DHT22;6408;59.388;17.798;2022-11-20T04:08:18;0.10;99.90
12688;DHT22;6408;59.388;17.798;2022-11-20T04:10:44;0.10;99.90
12688;DHT22;6408;59.388;17.798;2022-11-20T04:13:11;0.20;99.90
12688;DHT22;6408;59.388;17.798;2022-11-20T04:15:38;0.10;99.90
12688;DHT22;6408;59.388;17.798;2022-11-20T04:18:05;0.10;99.90
12688;DHT22;6408;59.388;17.798;2022-11-20T04:20:33;0.10;99.90
12688;DHT22;6408;59.388;17.798;2022-11-20T04:23:00;0.10;99.90
12688;DHT22;6408;59.388;17.798;2022-11-20T04:25:28;0.10;99.90
12688;DHT22;6408;59.388;17.798;2022-11-20T04:27:55;0.10;99.90
12688;DHT22;6408;59.388;17.798;2022-11-20T04:30:22;0.10;99.90
12688;DHT22;6408;59.388;17.798;2022-11-20T04:32:50;0.10;99.90
12688;DHT22;6408;59.388;17.798;2022-11-20T04:35:17;0.10;99.90
12688;DHT22;6408;59.388;17.798;2022-11-20T04:37:44;0.10;99.90
12688;DHT22;6408;59.388;17.798;2022-11-20T04:40:12;0.10;99.90
12688;DHT22;6408;59.388;17.798;2022-11-20T04:42:40;0.20;99.90
12688;DHT22;6408;59.388;17.798;2022-11-20T04:45:08;0.20;99.90
12688;DHT22;6408;59.388;17.798;2022-11-20T04:47:35;0.10;99.90
12688;DHT22;6408;59.388;17.798;2022-11-20T04:50:02;0.10;99.90
12688;DHT22;6408;59.388;17.798;2022-11-20T04:52:29;0.10;99.90
12688;DHT22;6408;59.388;17.798;2022-11-20T04:54:56;0.10;99.90
12688;DHT22;6408;59.388;17.798;2022-11-20T04:57:23;0.10;99.90
12688;DHT22;6408;59.388;17.798;2022-11-20T04:59:52;0.20;99.90
12688;DHT22;6408;59.388;17.798;2022-11-20T05:02:20;0.10;99.90
12688;DHT22;6408;59.388;17.798;2022-11-20T05:04:47;0.10;99.90
12688;DHT22;6408;59.388;17.798;2022-11-20T05:07:14;0.10;99.90
12688;DHT22;6408;59.388;17.798;2022-11-20T05:09:41;0.20;99.90
12688;DHT22;6408;59.388;17.798;2022-11-20T05:12:08;0.10;99.90
12688;DHT22;6408;59.388;17.798;2022-11-20T05:14:35;0.20;99.90
12688;DHT22;6408;59.388;17.798;2022-11-20T05:17:04;0.10;99.90
12688;DHT22;6408;59.388;17.798;2022-11-20T05:19:31;0.10;99.90
12688;DHT22;6408;59.388;17.798;2022-11-20T05:21:58;0.10;99.90
12688;DHT22;6408;59.388;17.798;2022-11-20T05:24:25;0.00;99.90
12688;DHT22;6408;59.388;17.798;2022-11-20T05:26:52;0.00;99.90
12688;DHT22;6408;59.388;17.798;2022-11-20T05:29:19;0.00;99.90
12688;DHT22;6408;59.388;17.798;2022-11-20T05:31:46;0.00;99.90
12688;DHT22;6408;59.388;17.798;2022-11-20T05:34:15;0.00;99.90
12688;DHT22;6408;59.388;17.798;2022-11-20T05:36:42;0.10;99.90
12688;DHT22;6408;59.388;17.798;2022-11-20T05:39:09;0.00;99.90
12688;DHT22;6408;59.388;17.798;2022-11-20T05:41:36;0.00;99.90
12688;DHT22;6408;59.388;17.798;2022-11-20T05:44:04;0.00;99.90
12688;DHT22;6408;59.388;17.798;2022-11-20T05:46:31;0.00;99.90
12688;DHT22;6408;59.388;17.798;2022-11-20T05:48:58;-0.10;99.90
12688;DHT22;6408;59.388;17.798;2022-11-20T05:51:27;0.00;99.90
12688;DHT22;6408;59.388;17.798;2022-11-20T05:53:56;0.00;99.90
12688;DHT22;6408;59.388;17.798;2022-11-20T05:56:24;0.00;99.90
12688;DHT22;6408;59.388;17.798;2022-11-20T05:58:51;0.00;99.90
12688;DHT22;6408;59.388;17.798;2022-11-20T06:01:20;0.00;99.90
12688;DHT22;6408;59.388;17.798;2022-11-20T06:03:48;0.00;99.90
12688;DHT22;6408;59.388;17.798;2022-11-20T06:06:17;0.00;99.90
12688;DHT22;6408;59.388;17.798;2022-11-20T06:08:46;0.00;99.90
12688;DHT22;6408;59.388;17.798;2022-11-20T06:11:14;0.00;99.90
12688;DHT22;6408;59.388;17.798;2022-11-20T06:13:41;0.10;99.90
12688;DHT22;6408;59.388;17.798;2022-11-20T06:16:09;0.10;99.90
12688;DHT22;6408;59.388;17.798;2022-11-20T06:18:37;0.10;99.90
12688;DHT22;6408;59.388;17.798;2022-11-20T06:21:06;0.10;99.90
12688;DHT22;6408;59.388;17.798;2022-11-20T06:23:34;0.10;99.90
12688;DHT22;6408;59.388;17.798;2022-11-20T06:26:04;0.10;99.90
12688;DHT22;6408;59.388;17.798;2022-11-20T06:28:32;0.10;99.90
12688;DHT22;6408;59.388;17.798;2022-11-20T06:30:59;0.00;99.90
12688;DHT22;6408;59.388;17.798;2022-11-20T06:33:27;0.10;99.90
12688;DHT22;6408;59.388;17.798;2022-11-20T06:35:56;0.00;99.90
12688;DHT22;6408;59.388;17.798;2022-11-20T06:38:24;0.00;99.90
12688;DHT22;6408;59.388;17.798;2022-11-20T06:40:51;0.00;99.90
12688;DHT22;6408;59.388;17.798;2022-11-20T06:43:19;0.10;99.90
12688;DHT22;6408;59.388;17.798;2022-11-20T06:45:51;0.10;99.90
12688;DHT22;6408;59.388;17.798;2022-11-20T06:48:18;0.10;99.90
12688;DHT22;6408;59.388;17.798;2022-11-20T06:50:45;0.10;99.90
12688;DHT22;6408;59.388;17.798;2022-11-20T06:53:12;0.10;99.90
12688;DHT22;6408;59.388;17.798;2022-11-20T06:55:42;0.10;99.90
12688;DHT22;6408;59.388;17.798;2022-11-20T06:58:10;0.10;99.90
12688;DHT22;6408;59.388;17.798;2022-11-20T07:00:39;0.10;99.90
12688;DHT22;6408;59.388;17.798;2022-11-20T07:03:08;0.00;99.90
12688;DHT22;6408;59.388;17.798;2022-11-20T07:05:35;0.00;99.90
12688;DHT22;6408;59.388;17.798;2022-11-20T07:08:04;0.00;99.90
12688;DHT22;6408;59.388;17.798;2022-11-20T07:10:32;0.10;99.90
12688;DHT22;6408;59.388;17.798;2022-11-20T07:12:59;0.10;99.90
12688;DHT22;6408;59.388;17.798;2022-11-20T07:15:27;0.10;99.90
12688;DHT22;6408;59.388;17.798;2022-11-20T07:17:58;0.10;99.90
12688;DHT22;6408;59.388;17.798;2022-11-20T07:20:25;0.10;99.90
12688;DHT22;6408;59.388;17.798;2022-11-20T07:22:53;0.00;99.90
12688;DHT22;6408;59.388;17.798;2022-11-20T07:25:21;0.10;99.90
12688;DHT22;6408;59.388;17.798;2022-11-20T07:27:48;0.10;99.90
12688;DHT22;6408;59.388;17.798;2022-11-20T07:30:15;0.10;99.90
12688;DHT22;6408;59.388;17.798;2022-11-20T07:32:45;0.10;99.90
12688;DHT22;6408;59.388;17.798;2022-11-20T07:35:14;0.10;99.90
12688;DHT22;6408;59.388;17.798;2022-11-20T07:37:41;0.10;99.90
12688;DHT22;6408;59.388;17.798;2022-11-20T07:40:09;0.10;99.90
12688;DHT22;6408;59.388;17.798;2022-11-20T07:42:37;0.20;99.90
12688;DHT22;6408;59.388;17.798;2022-11-20T07:45:05;0.20;99.90
12688;DHT22;6408;59.388;17.798;2022-11-20T07:47:35;0.20;99.90
12688;DHT22;6408;59.388;17.798;2022-11-20T07:50:03;0.20;99.90
12688;DHT22;6408;59.388;17.798;2022-11-20T07:52:31;0.20;99.90
12688;DHT22;6408;59.388;17.798;2022-11-20T07:54:59;0.20;99.90
12688;DHT22;6408;59.388;17.798;2022-11-20T07:57:26;0.30;99.90
12688;DHT22;6408;59.388;17.798;2022-11-20T07:59:53;0.40;99.90
12688;DHT22;6408;59.388;17.798;2022-11-20T08:02:20;0.40;99.90
12688;DHT22;6408;59.388;17.798;2022-11-20T08:04:47;0.40;99.90
12688;DHT22;6408;59.388;17.798;2022-11-20T08:07:14;0.50;99.90
12688;DHT22;6408;59.388;17.798;2022-11-20T08:09:43;0.50;99.90
12688;DHT22;6408;59.388;17.798;2022-11-20T08:12:17;0.50;99.90
12688;DHT22;6408;59.388;17.798;2022-11-20T08:15:02;0.50;99.90
12688;DHT22;6408;59.388;17.798;2022-11-20T08:17:29;0.60;99.90
12688;DHT22;6408;59.388;17.798;2022-11-20T08:19:57;0.50;99.90
12688;DHT22;6408;59.388;17.798;2022-11-20T08:22:24;0.50;99.90
12688;DHT22;6408;59.388;17.798;2022-11-20T08:24:52;0.60;99.90
12688;DHT22;6408;59.388;17.798;2022-11-20T08:27:20;0.60;99.90
12688;DHT22;6408;59.388;17.798;2022-11-20T08:29:47;0.50;99.90
12688;DHT22;6408;59.388;17.798;2022-11-20T08:32:14;0.60;99.90
12688;DHT22;6408;59.388;17.798;2022-11-20T08:34:41;0.60;99.90
12688;DHT22;6408;59.388;17.798;2022-11-20T08:37:08;0.60;99.90
12688;DHT22;6408;59.388;17.798;2022-11-20T08:39:35;0.60;99.90
12688;DHT22;6408;59.388;17.798;2022-11-20T08:42:06;0.60;99.90
12688;DHT22;6408;59.388;17.798;2022-11-20T08:44:33;0.60;99.90
12688;DHT22;6408;59.388;17.798;2022-11-20T08:47:01;0.60;99.90
12688;DHT22;6408;59.388;17.798;2022-11-20T08:49:28;0.60;99.90
12688;DHT22;6408;59.388;17.798;2022-11-20T08:51:55;0.60;99.90
12688;DHT22;6408;59.388;17.798;2022-11-20T08:54:22;0.60;99.90
12688;DHT22;6408;59.388;17.798;2022-11-20T08:56:49;0.60;99.90
12688;DHT22;6408;59.388;17.798;2022-11-20T08:59:18;0.60;99.90
12688;DHT22;6408;59.388;17.798;2022-11-20T09:01:45;0.70;99.90
12688;DHT22;6408;59.388;17.798;2022-11-20T09:04:12;0.70;99.90
12688;DHT22;6408;59.388;17.798;2022-11-20T09:06:40;0.70;99.90
12688;DHT22;6408;59.388;17.798;2022-11-20T09:09:07;0.70;99.90
12688;DHT22;6408;59.388;17.798;2022-11-20T09:11:34;0.70;99.90
12688;DHT22;6408;59.388;17.798;2022-11-20T09:14:02;0.70;99.90
12688;DHT22;6408;59.388;17.798;2022-11-20T09:16:31;0.70;99.90
12688;DHT22;6408;59.388;17.798;2022-11-20T09:18:58;0.80;99.90
12688;DHT22;6408;59.388;17.798;2022-11-20T09:21:25;0.80;99.90
12688;DHT22;6408;59.388;17.798;2022-11-20T09:23:52;0.70;99.90
12688;DHT22;6408;59.388;17.798;2022-11-20T09:26:20;0.80;99.90
12688;DHT22;6408;59.388;17.798;2022-11-20T09:28:47;0.80;99.90
12688;DHT22;6408;59.388;17.798;2022-11-20T09:31:21;0.80;99.90
12688;DHT22;6408;59.388;17.798;2022-11-20T09:33:50;0.80;99.90
12688;DHT22;6408;59.388;17.798;2022-11-20T09:36:17;0.80;99.90
12688;DHT22;6408;59.388;17.798;2022-11-20T09:38:45;0.70;99.90
12688;DHT22;6408;59.388;17.798;2022-11-20T09:41:38;0.70;99.90
12688;DHT22;6408;59.388;17.798;2022-11-20T09:44:18;0.70;99.90
12688;DHT22;6408;59.388;17.798;2022-11-20T09:46:55;0.70;99.90
12688;DHT22;6408;59.388;17.798;2022-11-20T09:49:36;0.70;99.90
12688;DHT22;6408;59.388;17.798;2022-11-20T09:52:14;0.70;99.90
12688;DHT22;6408;59.388;17.798;2022-11-20T09:54:46;0.80;99.90
12688;DHT22;6408;59.388;17.798;2022-11-20T09:57:17;0.80;99.90
12688;DHT22;6408;59.388;17.798;2022-11-20T09:59:48;0.70;99.90
12688;DHT22;6408;59.388;17.798;2022-11-20T10:02:27;0.70;99.90
12688;DHT22;6408;59.388;17.798;2022-11-20T10:05:01;0.70;99.90
12688;DHT22;6408;59.388;17.798;2022-11-20T10:07:32;0.70;99.90
12688;DHT22;6408;59.388;17.798;2022-11-20T10:10:02;0.70;99.90
12688;DHT22;6408;59.388;17.798;2022-11-20T10:12:37;0.80;99.90
12688;DHT22;6408;59.388;17.798;2022-11-20T10:15:22;0.70;99.90
12688;DHT22;6408;59.388;17.798;2022-11-20T10:18:02;0.80;99.90
12688;DHT22;6408;59.388;17.798;2022-11-20T10:20:43;0.70;99.90
12688;DHT22;6408;59.388;17.798;2022-11-20T10:26:20;0.70;99.90
12688;DHT22;6408;59.388;17.798;2022-11-20T10:28:56;0.70;99.90
12688;DHT22;6408;59.388;17.798;2022-11-20T10:31:31;0.70;99.90
12688;DHT22;6408;59.388;17.798;2022-11-20T10:34:02;0.70;99.90
12688;DHT22;6408;59.388;17.798;2022-11-20T10:36:37;0.70;99.90
12688;DHT22;6408;59.388;17.798;2022-11-20T10:39:10;0.80;99.90
12688;DHT22;6408;59.388;17.798;2022-11-20T10:41:42;0.80;99.90
12688;DHT22;6408;59.388;17.798;2022-11-20T10:44:14;0.80;99.90
12688;DHT22;6408;59.388;17.798;2022-11-20T10:47:03;0.90;99.90
12688;DHT22;6408;59.388;17.798;2022-11-20T10:49:31;0.80;99.90
12688;DHT22;6408;59.388;17.798;2022-11-20T10:52:08;0.80;99.90
12688;DHT22;6408;59.388;17.798;2022-11-20T10:54:43;0.80;99.90
12688;DHT22;6408;59.388;17.798;2022-11-20T10:57:21;0.80;99.90
12688;DHT22;6408;59.388;17.798;2022-11-20T10:59:59;0.80;99.90
12688;DHT22;6408;59.388;17.798;2022-11-20T11:02:34;0.80;99.90
12688;DHT22;6408;59.388;17.798;2022-11-20T11:05:11;0.80;99.90
12688;DHT22;6408;59.388;17.798;2022-11-20T11:07:42;0.80;99.90
12688;DHT22;6408;59.388;17.798;2022-11-20T11:10:16;0.80;99.90
12688;DHT22;6408;59.388;17.798;2022-11-20T11:12:45;0.80;99.90
12688;DHT22;6408;59.388;17.798;2022-11-20T11:15:27;0.90;99.90
12688;DHT22;6408;59.388;17.798;2022-11-20T11:17:54;0.90;99.90
12688;DHT22;6408;59.388;17.798;2022-11-20T11:20:23;0.90;99.90
12688;DHT22;6408;59.388;17.798;2022-11-20T11:22:54;0.90;99.90
12688;DHT22;6408;59.388;17.798;2022-11-20T11:25:27;0.90;99.90
12688;DHT22;6408;59.388;17.798;2022-11-20T11:27:57;0.90;99.90
12688;DHT22;6408;59.388;17.798;2022-11-20T11:30:26;0.90;99.90
12688;DHT22;6408;59.388;17.798;2022-11-20T11:33:06;0.90;99.90
12688;DHT22;6408;59.388;17.798;2022-11-20T11:35:38;0.90;99.90
12688;DHT22;6408;59.388;17.798;2022-11-20T11:38:11;1.00;99.90
12688;DHT22;6408;59.388;17.798;2022-11-20T11:40:40;1.00;99.90
12688;DHT22;6408;59.388;17.798;2022-11-20T11:43:17;1.00;99.90
12688;DHT22;6408;59.388;17.798;2022-11-20T11:45:59;1.00;99.90
12688;DHT22;6408;59.388;17.798;2022-11-20T11:48:27;1.00;99.90
12688;DHT22;6408;59.388;17.798;2022-11-20T11:50:54;0.90;99.90
12688;DHT22;6408;59.388;17.798;2022-11-20T11:53:26;1.00;99.90
12688;DHT22;6408;59.388;17.798;2022-11-20T11:55:58;1.00;99.90
12688;DHT22;6408;59.388;17.798;2022-11-20T11:58:39;1.00;99.90
12688;DHT22;6408;59.388;17.798;2022-11-20T12:01:17;1.00;99.90
12688;DHT22;6408;59.388;17.798;2022-11-20T12:03:55;1.00;99.90
12688;DHT22;6408;59.388;17.798;2022-11-20T12:06:25;1.00;99.90
12688;DHT22;6408;59.388;17.798;2022-11-20T12:09:01;1.10;99.90
12688;DHT22;6408;59.388;17.798;2022-11-20T12:11:34;1.00;99.90
12688;DHT22;6408;59.388;17.798;2022-11-20T12:14:11;1.10;99.90
12688;DHT22;6408;59.388;17.798;2022-11-20T12:16:40;1.00;99.90
12688;DHT22;6408;59.388;17.798;2022-11-20T12:19:11;1.00;99.90
12688;DHT22;6408;59.388;17.798;2022-11-20T12:21:46;0.90;99.90
12688;DHT22;6408;59.388;17.798;2022-11-20T12:24:44;1.00;99.90
12688;DHT22;6408;59.388;17.798;2022-11-20T12:27:36;1.00;99.90
12688;DHT22;6408;59.388;17.798;2022-11-20T12:30:09;1.00;99.90
12688;DHT22;6408;59.388;17.798;2022-11-20T12:35:44;1.00;99.90
12688;DHT22;6408;59.388;17.798;2022-11-20T12:38:45;0.90;99.90
12688;DHT22;6408;59.388;17.798;2022-11-20T12:41:29;0.90;99.90
12688;DHT22;6408;59.388;17.798;2022-11-20T12:44:26;0.90;99.90
12688;DHT22;6408;59.388;17.798;2022-11-20T12:47:19;0.90;99.90
12688;DHT22;6408;59.388;17.798;2022-11-20T12:49:53;0.90;99.90
12688;DHT22;6408;59.388;17.798;2022-11-20T12:52:37;0.90;99.90
12688;DHT22;6408;59.388;17.798;2022-11-20T12:55:20;1.00;99.90
12688;DHT22;6408;59.388;17.798;2022-11-20T12:57:55;0.90;99.90
12688;DHT22;6408;59.388;17.798;2022-11-20T13:00:24;0.90;99.90
12688;DHT22;6408;59.388;17.798;2022-11-20T13:03:29;0.90;99.90
12688;DHT22;6408;59.388;17.798;2022-11-20T13:06:04;0.90;99.90
12688;DHT22;6408;59.388;17.798;2022-11-20T13:08:34;0.90;99.90
12688;DHT22;6408;59.388;17.798;2022-11-20T13:11:08;0.90;99.90
12688;DHT22;6408;59.388;17.798;2022-11-20T13:13:46;0.80;99.90
12688;DHT22;6408;59.388;17.798;2022-11-20T13:16:19;0.90;99.90
12688;DHT22;6408;59.388;17.798;2022-11-20T13:18:50;0.80;99.90
12688;DHT22;6408;59.388;17.798;2022-11-20T13:21:19;0.80;99.90
12688;DHT22;6408;59.388;17.798;2022-11-20T13:23:47;0.70;99.90
12688;DHT22;6408;59.388;17.798;2022-11-20T13:26:19;0.80;99.90
12688;DHT22;6408;59.388;17.798;2022-11-20T13:29:04;0.80;99.90
12688;DHT22;6408;59.388;17.798;2022-11-20T13:31:35;0.80;99.90
12688;DHT22;6408;59.388;17.798;2022-11-20T13:34:06;0.80;99.90
12688;DHT22;6408;59.388;17.798;2022-11-20T13:36:33;0.70;99.90
12688;DHT22;6408;59.388;17.798;2022-11-20T13:39:02;0.70;99.90
12688;DHT22;6408;59.388;17.798;2022-11-20T13:41:30;0.70;99.90
12688;DHT22;6408;59.388;17.798;2022-11-20T13:44:10;0.80;99.90
12688;DHT22;6408;59.388;17.798;2022-11-20T13:46:41;0.80;99.90
12688;DHT22;6408;59.388;17.798;2022-11-20T13:49:18;0.70;99.90
12688;DHT22;6408;59.388;17.798;2022-11-20T13:51:47;0.70;99.90
12688;DHT22;6408;59.388;17.798;2022-11-20T13:57:42;0.80;99.90
12688;DHT22;6408;59.388;17.798;2022-11-20T14:00:15;0.80;99.90
12688;DHT22;6408;59.388;17.798;2022-11-20T14:02:44;0.80;99.90
12688;DHT22;6408;59.388;17.798;2022-11-20T14:05:19;0.70;99.90
12688;DHT22;6408;59.388;17.798;2022-11-20T14:07:48;0.80;99.90
12688;DHT22;6408;59.388;17.798;2022-11-20T14:10:21;0.80;99.90
12688;DHT22;6408;59.388;17.798;2022-11-20T14:12:48;0.80;99.90
12688;DHT22;6408;59.388;17.798;2022-11-20T14:15:27;0.70;99.90
12688;DHT22;6408;59.388;17.798;2022-11-20T14:17:54;0.70;99.90
12688;DHT22;6408;59.388;17.798;2022-11-20T14:20:24;0.70;99.90
12688;DHT22;6408;59.388;17.798;2022-11-20T14:22:53;0.70;99.90
12688;DHT22;6408;59.388;17.798;2022-11-20T14:25:22;0.70;99.90
12688;DHT22;6408;59.388;17.798;2022-11-20T14:27:54;0.70;99.90
12688;DHT22;6408;59.388;17.798;2022-11-20T14:30:23;0.60;99.90
12688;DHT22;6408;59.388;17.798;2022-11-20T14:32:54;0.60;99.90
12688;DHT22;6408;59.388;17.798;2022-11-20T14:35:25;0.60;99.90
12688;DHT22;6408;59.388;17.798;2022-11-20T14:37:53;0.70;99.90
12688;DHT22;6408;59.388;17.798;2022-11-20T14:40:28;0.70;99.90
12688;DHT22;6408;59.388;17.798;2022-11-20T14:42:56;0.60;99.90
12688;DHT22;6408;59.388;17.798;2022-11-20T14:45:25;0.70;99.90
12688;DHT22;6408;59.388;17.798;2022-11-20T14:47:56;0.60;99.90
12688;DHT22;6408;59.388;17.798;2022-11-20T14:50:27;0.50;99.90
12688;DHT22;6408;59.388;17.798;2022-11-20T14:52:56;0.50;99.90
12688;DHT22;6408;59.388;17.798;2022-11-20T14:55:28;0.50;99.90
12688;DHT22;6408;59.388;17.798;2022-11-20T14:57:56;0.50;99.90
12688;DHT22;6408;59.388;17.798;2022-11-20T15:00:25;0.50;99.90
12688;DHT22;6408;59.388;17.798;2022-11-20T15:02:54;0.50;99.90
12688;DHT22;6408;59.388;17.798;2022-11-20T15:05:22;0.50;99.90
12688;DHT22;6408;59.388;17.798;2022-11-20T15:07:51;0.50;99.90
12688;DHT22;6408;59.388;17.798;2022-11-20T15:10:23;0.50;99.90
12688;DHT22;6408;59.388;17.798;2022-11-20T15:12:51;0.40;99.90
12688;DHT22;6408;59.388;17.798;2022-11-20T15:15:21;0.40;99.90
12688;DHT22;6408;59.388;17.798;2022-11-20T15:17:50;0.40;99.90
12688;DHT22;6408;59.388;17.798;2022-11-20T15:20:19;0.30;99.90
12688;DHT22;6408;59.388;17.798;2022-11-20T15:22:48;0.30;99.90
12688;DHT22;6408;59.388;17.798;2022-11-20T15:25:16;0.30;99.90
12688;DHT22;6408;59.388;17.798;2022-11-20T15:27:45;0.20;99.90
12688;DHT22;6408;59.388;17.798;2022-11-20T15:30:14;0.20;99.90
12688;DHT22;6408;59.388;17.798;2022-11-20T15:32:43;0.20;99.90
12688;DHT22;6408;59.388;17.798;2022-11-20T15:35:11;0.20;99.90
12688;DHT22;6408;59.388;17.798;2022-11-20T15:37:40;0.20;99.90
12688;DHT22;6408;59.388;17.798;2022-11-20T15:40:09;0.10;99.90
12688;DHT22;6408;59.388;17.798;2022-11-20T15:42:36;0.10;99.90
12688;DHT22;6408;59.388;17.798;2022-11-20T15:45:04;0.10;99.90
12688;DHT22;6408;59.388;17.798;2022-11-20T15:47:34;0.10;99.90
12688;DHT22;6408;59.388;17.798;2022-11-20T15:50:02;0.10;99.90
12688;DHT22;6408;59.388;17.798;2022-11-20T15:52:30;0.10;99.90
12688;DHT22;6408;59.388;17.798;2022-11-20T15:54:59;0.00;99.90
12688;DHT22;6408;59.388;17.798;2022-11-20T15:57:26;0.10;99.90
12688;DHT22;6408;59.388;17.798;2022-11-20T15:59:53;0.10;99.90
12688;DHT22;6408;59.388;17.798;2022-11-20T16:02:20;0.10;99.90
12688;DHT22;6408;59.388;17.798;2022-11-20T16:04:47;0.10;99.90
12688;DHT22;6408;59.388;17.798;2022-11-20T16:07:14;0.10;99.90
12688;DHT22;6408;59.388;17.798;2022-11-20T16:09:41;0.00;99.90
12688;DHT22;6408;59.388;17.798;2022-11-20T16:12:10;0.00;99.90
12688;DHT22;6408;59.388;17.798;2022-11-20T16:14:58;0.00;99.90